createdAt,value
2018-10-01T00:00:33.246Z,71.50
2018-10-01T00:01:36.332Z,71.74
2018-10-01T00:02:39.198Z,71.75
2018-10-01T00:03:42.757Z,71.21
2018-10-01T00:04:45.825Z,71.31
2018-10-01T00:05:49.329Z,71.16
2018-10-01T00:06:52.245Z,70.98
2018-10-01T00:07:55.469Z,71.17
2018-10-01T00:08:58.514Z,71.04
2018-10-01T00:10:01.588Z,71.23
2018-10-01T00:11:05.032Z,71.16
2018-10-01T00:12:08.150Z,71.16
2018-10-01T00:13:10.906Z,71.37
2018-10-01T00:14:13.706Z,71.24
2018-10-01T00:15:16.747Z,70.96
2018-10-01T00:16:19.814Z,71.00
2018-10-01T00:17:23.866Z,70.78
2018-10-01T00:18:26.741Z,70.99
2018-10-01T00:19:34.581Z,70.95
2018-10-01T00:20:42.505Z,71.46
2018-10-01T00:21:50.267Z,72.19
2018-10-01T00:22:53.454Z,72.09
2018-10-01T00:23:57.448Z,72.50
2018-10-01T00:25:01.615Z,72.79
2018-10-01T00:26:04.479Z,73.12
2018-10-01T00:27:07.337Z,73.12
2018-10-01T00:28:10.157Z,73.27
2018-10-01T00:29:12.929Z,72.92
2018-10-01T00:30:16.124Z,72.92
2018-10-01T00:31:18.989Z,72.59
2018-10-01T00:32:21.761Z,72.26
2018-10-01T00:33:24.600Z,72.35
2018-10-01T00:34:27.369Z,72.31
2018-10-01T00:35:30.179Z,72.79
2018-10-01T00:36:33.371Z,72.92
2018-10-01T00:37:36.166Z,73.05
2018-10-01T00:38:39.026Z,72.90
2018-10-01T00:39:41.837Z,72.65
2018-10-01T00:40:44.536Z,72.86
2018-10-01T00:41:47.247Z,73.01
2018-10-01T00:42:50.310Z,72.91
2018-10-01T00:43:53.145Z,72.80
2018-10-01T00:44:55.847Z,72.64
2018-10-01T00:45:58.562Z,72.83
2018-10-01T00:47:01.308Z,72.84
2018-10-01T00:48:04.028Z,72.68
2018-10-01T00:49:07.457Z,72.41
2018-10-01T00:50:10.158Z,72.32
2018-10-01T00:51:12.874Z,72.36
2018-10-01T00:52:15.564Z,73.18
2018-10-01T00:53:18.290Z,72.37
2018-10-01T00:54:21.080Z,72.58
2018-10-01T00:55:24.132Z,72.86
2018-10-01T00:56:26.894Z,73.31
2018-10-01T00:57:29.669Z,73.34
2018-10-01T00:58:32.383Z,73.67
2018-10-01T00:59:35.921Z,73.75
2018-10-01T01:00:38.654Z,74.52
2018-10-01T01:01:41.698Z,74.21
2018-10-01T01:02:45.350Z,74.44
2018-10-01T01:03:48.078Z,74.23
2018-10-01T01:04:50.810Z,74.34
2018-10-01T01:05:54.221Z,74.51
2018-10-01T01:06:57.485Z,73.81
2018-10-01T01:08:00.571Z,73.12
2018-10-01T01:09:03.406Z,73.73
2018-10-01T01:10:06.346Z,73.85
2018-10-01T01:11:09.062Z,73.76
2018-10-01T01:12:11.829Z,74.19
2018-10-01T01:13:15.173Z,74.25
2018-10-01T01:14:18.997Z,74.02
2018-10-01T01:15:21.777Z,74.41
2018-10-01T01:16:24.524Z,74.57
2018-10-01T01:17:27.380Z,74.37
2018-10-01T01:18:30.258Z,74.41
2018-10-01T01:19:33.236Z,74.58
2018-10-01T01:20:36.885Z,74.68
2018-10-01T01:21:39.618Z,74.93
2018-10-01T01:22:42.338Z,74.59
2018-10-01T01:23:45.124Z,74.50
2018-10-01T01:24:47.865Z,74.81
2018-10-01T01:25:51.660Z,74.54
2018-10-01T01:26:54.976Z,74.51
2018-10-01T01:27:57.695Z,74.42
2018-10-01T01:29:02.306Z,74.28
2018-10-01T01:30:05.055Z,74.06
2018-10-01T01:31:07.798Z,74.13
2018-10-01T01:32:11.406Z,74.55
2018-10-01T01:33:14.588Z,74.80
2018-10-01T01:34:17.351Z,74.88
2018-10-01T01:35:20.087Z,74.60
2018-10-01T01:36:22.843Z,74.50
2018-10-01T01:37:25.586Z,75.14
2018-10-01T01:38:28.319Z,74.96
2018-10-01T01:39:31.450Z,75.02
2018-10-01T01:40:34.207Z,75.25
2018-10-01T01:41:37.016Z,75.20
2018-10-01T01:42:39.758Z,75.41
2018-10-01T01:43:42.517Z,74.70
2018-10-01T01:44:45.269Z,74.81
2018-10-01T01:45:48.450Z,74.47
2018-10-01T01:46:51.191Z,74.50
2018-10-01T01:47:53.958Z,74.46
2018-10-01T01:48:56.710Z,74.22
2018-10-01T01:49:59.459Z,74.33
2018-10-01T01:51:02.227Z,74.45
2018-10-01T01:52:05.336Z,74.49
2018-10-01T01:53:08.939Z,74.69
2018-10-01T01:54:11.693Z,74.99
2018-10-01T01:55:14.417Z,74.70
2018-10-01T01:56:17.140Z,74.25
2018-10-01T01:57:19.891Z,74.13
2018-10-01T01:58:22.947Z,74.26
2018-10-01T01:59:25.700Z,74.04
2018-10-01T02:00:28.428Z,74.80
2018-10-01T02:01:31.152Z,74.30
2018-10-01T02:02:34.498Z,73.89
2018-10-01T02:03:37.232Z,74.00
2018-10-01T02:04:40.499Z,73.77
2018-10-01T02:05:43.220Z,73.42
2018-10-01T02:06:45.987Z,73.63
2018-10-01T02:07:48.684Z,73.30
2018-10-01T02:08:51.412Z,73.32
2018-10-01T02:09:54.143Z,73.43
2018-10-01T02:10:57.367Z,73.56
2018-10-01T02:12:00.110Z,73.82
2018-10-01T02:13:03.546Z,73.61
2018-10-01T02:14:06.335Z,74.21
2018-10-01T02:15:09.087Z,73.97
2018-10-01T02:16:11.839Z,74.08
2018-10-01T02:17:15.736Z,74.08
2018-10-01T02:18:18.489Z,73.74
2018-10-01T02:19:21.267Z,73.74
2018-10-01T02:20:23.984Z,73.93
2018-10-01T02:21:26.777Z,74.24
2018-10-01T02:22:30.679Z,74.18
2018-10-01T02:23:34.046Z,74.88
2018-10-01T02:24:36.819Z,75.29
2018-10-01T02:25:39.552Z,75.80
2018-10-01T02:26:42.286Z,76.08
2018-10-01T02:27:45.051Z,75.75
2018-10-01T02:28:47.843Z,75.64
2018-10-01T02:29:51.017Z,75.94
2018-10-01T02:30:53.758Z,76.08
2018-10-01T02:31:56.508Z,76.00
2018-10-01T02:32:59.223Z,76.24
2018-10-01T02:34:01.944Z,77.49
2018-10-01T02:35:04.696Z,78.29
2018-10-01T02:36:07.837Z,79.32
2018-10-01T02:37:10.575Z,79.24
2018-10-01T02:38:13.339Z,79.45
2018-10-01T02:39:16.104Z,79.72
2018-10-01T02:40:19.796Z,78.95
2018-10-01T02:41:22.520Z,78.80
2018-10-01T02:42:25.650Z,78.91
2018-10-01T02:43:28.382Z,78.67
2018-10-01T02:44:32.072Z,78.79
2018-10-01T02:45:34.815Z,78.14
2018-10-01T02:46:37.859Z,77.78
2018-10-01T02:47:40.722Z,77.43
2018-10-01T02:48:43.943Z,76.98
2018-10-01T02:49:46.687Z,76.75
2018-10-01T02:50:49.412Z,76.39
2018-10-01T02:51:57.044Z,75.93
2018-10-01T02:53:04.817Z,76.09
2018-10-01T02:54:12.566Z,76.10
2018-10-01T02:55:15.743Z,75.96
2018-10-01T02:56:18.472Z,75.94
2018-10-01T02:57:21.204Z,75.61
2018-10-01T02:58:23.961Z,75.84
2018-10-01T02:59:27.599Z,75.54
2018-10-01T03:00:30.419Z,75.37
2018-10-01T03:01:33.568Z,75.28
2018-10-01T03:02:38.269Z,75.01
2018-10-01T03:03:41.000Z,74.97
2018-10-01T03:04:43.715Z,75.17
2018-10-01T03:05:46.492Z,75.64
2018-10-01T03:06:50.300Z,75.49
2018-10-01T03:07:54.471Z,75.99
2018-10-01T03:08:57.732Z,75.89
2018-10-01T03:10:00.459Z,75.74
2018-10-01T03:11:03.228Z,76.01
2018-10-01T03:12:06.042Z,75.67
2018-10-01T03:13:08.776Z,75.36
2018-10-01T03:14:12.914Z,75.25
2018-10-01T03:15:15.690Z,75.26
2018-10-01T03:16:18.502Z,75.19
2018-10-01T03:17:21.243Z,74.84
2018-10-01T03:18:23.997Z,74.70
2018-10-01T03:19:26.705Z,74.50
2018-10-01T03:20:29.831Z,74.78
2018-10-01T03:21:32.638Z,74.69
2018-10-01T03:22:35.732Z,74.76
2018-10-01T03:23:38.508Z,74.48
2018-10-01T03:24:41.561Z,74.72
2018-10-01T03:25:44.302Z,75.56
2018-10-01T03:26:47.414Z,75.47
2018-10-01T03:27:50.200Z,75.67
2018-10-01T03:28:52.964Z,75.71
2018-10-01T03:29:55.730Z,76.14
2018-10-01T03:30:58.467Z,76.47
2018-10-01T03:32:01.207Z,76.23
2018-10-01T03:33:04.275Z,75.78
2018-10-01T03:34:07.035Z,76.07
2018-10-01T03:35:09.768Z,76.40
2018-10-01T03:36:12.692Z,75.94
2018-10-01T03:37:15.451Z,76.32
2018-10-01T03:38:18.172Z,75.79
2018-10-01T03:39:21.291Z,76.11
2018-10-01T03:40:24.042Z,76.62
2018-10-01T03:41:26.785Z,76.69
2018-10-01T03:42:29.528Z,76.40
2018-10-01T03:43:32.304Z,77.02
2018-10-01T03:44:35.043Z,77.25
2018-10-01T03:45:38.155Z,77.08
2018-10-01T03:46:40.887Z,76.57
2018-10-01T03:47:43.643Z,76.20
2018-10-01T03:48:46.605Z,75.92
2018-10-01T03:49:49.349Z,75.58
2018-10-01T03:50:52.101Z,75.37
2018-10-01T03:51:55.148Z,75.52
2018-10-01T03:52:57.883Z,75.41
2018-10-01T03:54:00.727Z,75.67
2018-10-01T03:55:03.675Z,75.45
2018-10-01T03:56:06.396Z,75.44
2018-10-01T03:57:09.160Z,75.37
2018-10-01T03:58:12.247Z,75.73
2018-10-01T03:59:15.044Z,75.63
2018-10-01T04:00:17.751Z,75.61
2018-10-01T04:01:20.496Z,75.19
2018-10-01T04:02:23.287Z,75.06
2018-10-01T04:03:26.035Z,75.02
2018-10-01T04:04:29.231Z,75.13
2018-10-01T04:05:32.533Z,75.06
2018-10-01T04:06:35.292Z,75.04
2018-10-01T04:07:38.018Z,74.87
2018-10-01T04:08:40.811Z,74.96
2018-10-01T04:09:43.552Z,75.29
2018-10-01T04:10:46.675Z,75.34
2018-10-01T04:11:49.399Z,75.58
2018-10-01T04:12:52.139Z,75.36
2018-10-01T04:13:54.873Z,75.16
2018-10-01T04:16:08.738Z,76.06
2018-10-01T04:17:11.992Z,75.97
2018-10-01T04:18:14.715Z,76.61
2018-10-01T04:19:17.464Z,76.36
2018-10-01T04:20:20.470Z,76.53
2018-10-01T04:21:23.244Z,76.37
2018-10-01T04:22:37.033Z,76.72
2018-10-01T04:23:39.782Z,76.47
2018-10-01T04:24:42.539Z,76.31
2018-10-01T04:25:45.307Z,76.17
2018-10-01T04:26:48.028Z,75.87
2018-10-01T04:27:50.746Z,75.93
2018-10-01T04:28:54.621Z,76.05
2018-10-01T04:29:57.392Z,76.16
2018-10-01T04:31:00.120Z,75.96
2018-10-01T04:32:04.100Z,76.24
2018-10-01T04:33:06.838Z,76.02
2018-10-01T04:34:09.636Z,76.64
2018-10-01T04:35:12.815Z,76.83
2018-10-01T04:36:15.541Z,77.26
2018-10-01T04:37:18.271Z,77.42
2018-10-01T04:38:21.013Z,77.72
2018-10-01T04:39:23.803Z,77.77
2018-10-01T04:40:26.570Z,77.87
2018-10-01T04:41:29.699Z,77.75
2018-10-01T04:42:32.445Z,77.49
2018-10-01T04:43:35.203Z,77.56
2018-10-01T04:44:37.957Z,77.18
2018-10-01T04:45:40.733Z,77.37
2018-10-01T04:46:43.497Z,77.37
2018-10-01T04:47:46.709Z,76.55
2018-10-01T04:48:49.457Z,76.91
2018-10-01T04:49:52.212Z,76.88
2018-10-01T04:50:55.016Z,77.20
2018-10-01T04:51:57.972Z,76.99
2018-10-01T04:53:01.349Z,76.57
2018-10-01T04:54:05.430Z,76.72
2018-10-01T04:55:08.262Z,76.62
2018-10-01T04:56:11.126Z,76.84
2018-10-01T04:57:13.969Z,76.74
2018-10-01T04:58:16.748Z,76.69
2018-10-01T04:59:19.533Z,76.54
2018-10-01T05:00:25.499Z,76.03
2018-10-01T05:01:28.254Z,76.00
2018-10-01T05:02:31.027Z,76.09
2018-10-01T05:03:33.933Z,76.10
2018-10-01T05:04:36.813Z,76.30
2018-10-01T05:05:39.562Z,76.38
2018-10-01T05:06:42.695Z,76.38
2018-10-01T05:07:45.423Z,76.86
2018-10-01T05:08:49.268Z,76.79
2018-10-01T05:09:52.023Z,76.53
2018-10-01T05:10:54.783Z,76.71
2018-10-01T05:11:57.753Z,76.72
2018-10-01T05:13:02.615Z,76.59
2018-10-01T05:14:05.419Z,76.50
2018-10-01T05:15:08.208Z,76.47
2018-10-01T05:16:10.970Z,76.31
2018-10-01T05:17:13.743Z,76.44
2018-10-01T05:18:16.484Z,76.85
2018-10-01T05:19:19.537Z,76.84
2018-10-01T05:20:22.355Z,77.14
2018-10-01T05:21:25.139Z,77.09
2018-10-01T05:22:27.916Z,76.48
2018-10-01T05:23:30.663Z,76.61
2018-10-01T05:24:33.402Z,76.33
2018-10-01T05:25:36.617Z,76.38
2018-10-01T05:26:39.408Z,76.58
2018-10-01T05:27:42.853Z,76.85
2018-10-01T05:28:45.619Z,76.52
2018-10-01T05:29:49.158Z,76.89
2018-10-01T05:30:52.026Z,77.18
2018-10-01T05:45:37.086Z,78.47
2018-10-01T05:46:39.915Z,77.98
2018-10-01T05:47:42.694Z,78.01
2018-10-01T05:48:45.555Z,78.17
2018-10-01T05:49:48.358Z,78.01
2018-10-01T05:50:51.733Z,78.29
2018-10-01T05:51:54.526Z,78.38
2018-10-01T05:52:57.378Z,77.97
2018-10-01T05:54:00.192Z,78.13
2018-10-01T05:55:02.979Z,78.17
2018-10-01T05:56:05.800Z,77.59
2018-10-01T05:57:08.921Z,77.46
2018-10-01T05:58:11.761Z,77.67
2018-10-01T05:59:14.627Z,77.79
2018-10-01T06:00:18.229Z,77.81
2018-10-01T06:01:21.055Z,77.76
2018-10-01T06:02:23.907Z,77.91
2018-10-01T06:03:27.074Z,77.46
2018-10-01T06:04:29.814Z,77.60
2018-10-01T06:05:32.644Z,77.45
2018-10-01T06:06:35.411Z,77.37
2018-10-01T06:07:39.632Z,76.91
2018-10-01T06:08:42.789Z,77.12
2018-10-01T06:09:47.868Z,77.12
2018-10-01T06:10:51.915Z,77.31
2018-10-01T06:11:55.008Z,77.33
2018-10-01T06:12:58.998Z,77.74
2018-10-01T06:14:02.035Z,77.72
2018-10-01T06:15:04.884Z,77.52
2018-10-01T06:16:08.144Z,77.27
2018-10-01T06:17:11.550Z,77.64
2018-10-01T06:18:14.292Z,77.01
2018-10-01T06:19:17.232Z,77.02
2018-10-01T06:20:20.030Z,76.49
2018-10-01T06:21:22.738Z,76.74
2018-10-01T06:22:26.062Z,76.85
2018-10-01T06:23:28.887Z,76.81
2018-10-01T06:24:31.651Z,76.54
2018-10-01T06:25:34.415Z,76.54
2018-10-01T06:26:39.123Z,76.19
2018-10-01T06:27:41.893Z,76.39
2018-10-01T06:28:45.129Z,76.11
2018-10-01T06:29:48.589Z,76.10
2018-10-01T06:30:53.151Z,76.54
2018-10-01T06:31:55.921Z,76.58
2018-10-01T06:32:58.778Z,76.40
2018-10-01T06:34:02.228Z,76.21
2018-10-01T06:35:05.441Z,76.62
2018-10-01T06:36:08.222Z,76.48
2018-10-01T06:37:11.051Z,76.24
2018-10-01T06:38:13.813Z,76.30
2018-10-01T06:39:16.661Z,76.19
2018-10-01T06:40:20.382Z,76.52
2018-10-01T06:41:23.712Z,76.53
2018-10-01T06:42:27.539Z,76.17
2018-10-01T06:43:30.498Z,76.21
2018-10-01T06:44:34.358Z,76.50
2018-10-01T06:45:38.072Z,76.23
2018-10-01T06:46:41.400Z,76.45
2018-10-01T06:47:44.787Z,76.34
2018-10-01T06:48:47.792Z,76.25
2018-10-01T06:49:50.552Z,75.87
2018-10-01T06:50:53.444Z,76.43
2018-10-01T06:51:56.343Z,76.21
2018-10-01T06:53:03.899Z,75.86
2018-10-01T06:54:10.959Z,75.90
2018-10-01T06:55:13.967Z,76.20
2018-10-01T06:56:17.471Z,76.34
2018-10-01T06:57:21.547Z,76.38
2018-10-01T06:58:24.301Z,76.75
2018-10-01T06:59:27.094Z,76.55
2018-10-01T07:00:32.399Z,76.50
2018-10-01T07:01:37.135Z,76.64
2018-10-01T07:02:39.977Z,76.54
2018-10-01T07:03:44.547Z,76.44
2018-10-01T07:04:47.446Z,76.27
2018-10-01T07:05:50.502Z,76.47
2018-10-01T07:06:54.542Z,76.87
2018-10-01T07:07:58.244Z,76.54
2018-10-01T07:09:01.280Z,76.62
2018-10-01T07:10:05.004Z,76.85
2018-10-01T07:11:10.716Z,76.76
2018-10-01T07:12:14.764Z,76.83
2018-10-01T07:13:18.607Z,76.65
2018-10-01T07:14:21.375Z,76.37
2018-10-01T07:15:24.141Z,76.02
2018-10-01T07:16:28.086Z,76.17
2018-10-01T07:17:31.040Z,75.52
2018-10-01T07:18:33.726Z,75.33
2018-10-01T07:19:36.941Z,75.10
2018-10-01T07:20:39.738Z,75.47
2018-10-01T07:21:42.693Z,75.29
2018-10-01T07:22:45.976Z,75.75
2018-10-01T07:23:49.621Z,75.71
2018-10-01T07:24:53.410Z,75.63
2018-10-01T07:25:59.352Z,75.39
2018-10-01T07:27:02.180Z,75.43
2018-10-01T07:28:05.639Z,74.97
2018-10-01T07:29:08.795Z,75.24
2018-10-01T07:30:13.205Z,75.11
2018-10-01T07:31:15.983Z,75.30
2018-10-01T07:32:20.362Z,75.30
2018-10-01T07:33:23.126Z,75.64
2018-10-01T07:34:25.996Z,75.61
2018-10-01T07:35:31.123Z,75.74
2018-10-01T07:36:35.507Z,76.02
2018-10-01T07:37:38.272Z,76.14
2018-10-01T07:38:41.431Z,76.24
2018-10-01T07:39:45.381Z,75.90
2018-10-01T07:40:49.907Z,75.94
2018-10-01T07:41:52.663Z,76.22
2018-10-01T07:42:55.458Z,75.95
2018-10-01T07:43:58.261Z,75.07
2018-10-01T07:45:01.673Z,75.25
2018-10-01T07:46:05.472Z,74.63
2018-10-01T07:47:08.632Z,73.93
2018-10-01T07:48:11.432Z,73.18
2018-10-01T07:49:14.601Z,72.45
2018-10-01T07:50:17.469Z,72.57
2018-10-01T07:51:22.175Z,72.40
2018-10-01T07:52:27.610Z,71.41
2018-10-01T07:53:31.639Z,71.04
2018-10-01T07:54:34.634Z,69.76
2018-10-01T07:55:37.446Z,69.95
2018-10-01T07:56:40.457Z,70.90
2018-10-01T07:57:45.584Z,71.34
2018-10-01T07:58:52.557Z,70.19
2018-10-01T07:59:55.837Z,70.04
2018-10-01T08:00:58.540Z,69.22
2018-10-01T08:02:01.399Z,68.38
2018-10-01T08:03:04.157Z,67.86
2018-10-01T08:04:08.162Z,69.08
2018-10-01T08:05:11.504Z,68.00
2018-10-01T08:06:17.959Z,67.10
2018-10-01T08:07:23.549Z,67.68
2018-10-01T08:08:27.094Z,65.93
2018-10-01T08:09:30.044Z,64.31
2018-10-01T08:10:34.031Z,64.03
2018-10-01T08:11:37.827Z,63.32
2018-10-01T08:12:40.639Z,63.41
2018-10-01T08:13:48.395Z,62.36
2018-10-01T08:14:52.793Z,62.63
2018-10-01T08:15:55.688Z,61.98
2018-10-01T08:17:00.123Z,61.92
2018-10-01T08:18:02.977Z,62.71
2018-10-01T08:19:05.833Z,61.72
2018-10-01T08:20:09.754Z,61.93
2018-10-01T08:21:12.664Z,59.92
2018-10-01T08:22:15.451Z,60.12
2018-10-01T08:23:18.783Z,58.60
2018-10-01T08:24:21.782Z,58.74
2018-10-01T08:25:24.939Z,58.21
2018-10-01T08:26:27.863Z,58.07
2018-10-01T08:27:31.634Z,59.81
2018-10-01T08:28:35.646Z,61.31
2018-10-01T08:29:39.199Z,62.62
2018-10-01T08:30:41.864Z,63.99
2018-10-01T08:31:45.202Z,65.55
2018-10-01T08:32:49.027Z,64.84
2018-10-01T08:33:51.982Z,64.20
2018-10-01T08:34:54.694Z,64.33
2018-10-01T08:35:58.857Z,63.73
2018-10-01T08:37:01.674Z,64.06
2018-10-01T08:38:05.348Z,63.98
2018-10-01T08:39:09.728Z,64.45
2018-10-01T08:40:12.481Z,63.90
2018-10-01T08:41:15.334Z,63.43
2018-10-01T08:42:20.058Z,63.29
2018-10-01T08:43:22.851Z,63.16
2018-10-01T08:44:26.586Z,63.83
2018-10-01T08:45:29.464Z,63.65
2018-10-01T08:46:36.247Z,64.09
2018-10-01T08:47:39.828Z,64.42
2018-10-01T08:48:46.996Z,64.96
2018-10-01T08:49:57.430Z,65.89
2018-10-01T08:51:15.053Z,65.23
2018-10-01T08:52:27.242Z,64.94
2018-10-01T08:53:37.940Z,65.37
2018-10-01T08:54:43.012Z,64.53
2018-10-01T08:55:47.680Z,64.88
2018-10-01T08:56:50.546Z,65.18
2018-10-01T08:57:53.293Z,63.73
2018-10-01T08:58:56.186Z,62.97
2018-10-01T08:59:59.026Z,62.89
2018-10-01T09:01:02.082Z,62.05
2018-10-01T09:02:05.364Z,61.51
2018-10-01T09:03:08.844Z,62.16
2018-10-01T09:04:14.429Z,62.09
2018-10-01T09:05:19.239Z,60.44
2018-10-01T09:06:23.556Z,60.31
2018-10-01T09:07:27.904Z,58.72
2018-10-01T09:08:31.007Z,58.88
2018-10-01T09:09:33.803Z,60.48
2018-10-01T09:10:36.821Z,60.93
2018-10-01T09:11:39.718Z,61.64
2018-10-01T09:12:42.896Z,63.68
2018-10-01T09:13:46.867Z,66.12
2018-10-01T09:14:50.928Z,62.55
2018-10-01T09:15:54.279Z,60.13
2018-10-01T09:17:06.118Z,57.34
2018-10-01T09:18:10.289Z,55.55
2018-10-01T09:19:13.384Z,56.40
2018-10-01T09:20:16.724Z,55.11
2018-10-01T09:21:21.458Z,55.06
2018-10-01T09:22:25.427Z,56.37
2018-10-01T09:23:28.453Z,56.05
2018-10-01T09:24:31.734Z,55.70
2018-10-01T09:25:36.316Z,56.17
2018-10-01T09:26:40.853Z,55.13
2018-10-01T09:27:44.027Z,55.60
2018-10-01T09:28:47.230Z,53.92
2018-10-01T09:29:51.448Z,53.77
2018-10-01T09:30:54.964Z,51.67
2018-10-01T09:31:58.684Z,50.02
2018-10-01T09:33:01.768Z,52.93
2018-10-01T09:34:05.325Z,55.08
2018-10-01T09:35:09.218Z,56.98
2018-10-01T09:36:12.840Z,57.49
2018-10-01T09:37:15.746Z,57.50
2018-10-01T09:38:19.365Z,57.00
2018-10-01T09:39:23.173Z,57.03
2018-10-01T09:40:27.542Z,58.71
2018-10-01T09:41:31.035Z,58.30
2018-10-01T09:42:34.926Z,56.05
2018-10-01T09:43:38.142Z,56.15
2018-10-01T09:44:41.234Z,56.20
2018-10-01T09:45:45.628Z,55.98
2018-10-01T09:46:49.373Z,55.38
2018-10-01T09:47:52.567Z,53.66
2018-10-01T09:48:57.293Z,52.75
2018-10-01T09:50:00.795Z,51.93
2018-10-01T09:51:04.747Z,49.74
2018-10-01T09:52:07.600Z,50.55
2018-10-01T09:53:10.926Z,50.65
2018-10-01T09:54:14.272Z,50.66
2018-10-01T09:55:17.545Z,51.52
2018-10-01T09:56:20.758Z,50.90
2018-10-01T09:57:25.422Z,51.25
2018-10-01T09:58:28.330Z,52.19
2018-10-01T09:59:31.928Z,52.24
2018-10-01T10:00:39.664Z,52.97
2018-10-01T10:01:43.868Z,53.38
2018-10-01T10:03:01.526Z,53.46
2018-10-01T10:04:04.764Z,54.30
2018-10-01T10:05:08.069Z,55.85
2018-10-01T10:06:11.486Z,56.21
2018-10-01T10:07:18.449Z,56.54
2018-10-01T10:08:22.796Z,56.73
2018-10-01T10:09:25.760Z,57.38
2018-10-01T10:10:29.771Z,57.59
2018-10-01T10:11:32.947Z,58.54
2018-10-01T10:12:37.334Z,58.41
2018-10-01T10:13:40.348Z,57.95
2018-10-01T10:14:43.313Z,57.79
2018-10-01T10:15:46.241Z,57.84
2018-10-01T10:16:51.155Z,58.21
2018-10-01T10:17:54.406Z,59.61
2018-10-01T10:18:57.853Z,60.26
2018-10-01T10:20:03.590Z,62.02
2018-10-01T10:21:06.752Z,63.88
2018-10-01T10:22:10.000Z,65.36
2018-10-01T10:23:13.550Z,65.95
2018-10-01T10:24:17.472Z,66.56
2018-10-01T10:25:21.487Z,67.34
2018-10-01T10:26:24.625Z,67.39
2018-10-01T10:27:29.412Z,67.43
2018-10-01T10:28:32.616Z,67.99
2018-10-01T10:29:35.768Z,68.61
2018-10-01T10:30:38.940Z,68.25
2018-10-01T10:31:43.685Z,68.56
2018-10-01T10:44:40.480Z,67.43
2018-10-01T10:45:44.302Z,67.71
2018-10-01T10:46:48.112Z,67.41
2018-10-01T10:47:51.249Z,67.36
2018-10-01T10:48:54.773Z,67.72
2018-10-01T10:50:00.344Z,67.33
2018-10-01T10:51:03.513Z,64.96
2018-10-01T10:52:08.450Z,63.14
2018-10-01T10:53:13.093Z,63.11
2018-10-01T10:54:16.040Z,61.84
2018-10-01T10:55:18.926Z,59.25
2018-10-01T10:56:22.404Z,59.19
2018-10-01T10:57:25.359Z,61.15
2018-10-01T10:58:29.459Z,58.96
2018-10-01T10:59:32.467Z,57.90
2018-10-01T11:00:36.454Z,57.28
2018-10-01T11:01:39.239Z,56.37
2018-10-01T11:02:42.628Z,56.90
2018-10-01T11:03:45.783Z,56.36
2018-10-01T11:04:49.401Z,56.43
2018-10-01T11:05:53.196Z,55.33
2018-10-01T11:06:57.619Z,55.75
2018-10-01T11:08:00.497Z,54.62
2018-10-01T11:09:03.984Z,53.47
2018-10-01T11:10:06.992Z,51.47
2018-10-01T11:11:11.030Z,51.90
2018-10-01T11:12:14.342Z,51.17
2018-10-01T11:13:17.457Z,50.09
2018-10-01T11:14:20.829Z,52.58
2018-10-01T11:15:24.414Z,54.71
2018-10-01T11:16:27.503Z,53.31
2018-10-01T11:17:33.202Z,51.24
2018-10-01T11:18:37.590Z,49.89
2018-10-01T11:19:43.511Z,51.00
2018-10-01T11:20:47.008Z,48.67
2018-10-01T11:21:50.591Z,49.66
2018-10-01T11:22:55.137Z,51.07
2018-10-01T11:23:58.267Z,51.32
2018-10-01T11:25:01.398Z,53.10
2018-10-01T11:26:05.132Z,53.95
2018-10-01T11:27:11.299Z,52.87
2018-10-01T11:28:14.725Z,54.81
2018-10-01T11:29:18.083Z,55.80
2018-10-01T11:30:21.013Z,54.60
2018-10-01T11:31:26.361Z,52.58
2018-10-01T11:32:34.642Z,53.92
2018-10-01T11:33:38.950Z,53.86
2018-10-01T11:34:45.869Z,54.55
2018-10-01T11:35:49.380Z,54.23
2018-10-01T11:36:57.326Z,53.57
2018-10-01T11:38:00.688Z,53.92
2018-10-01T11:39:05.521Z,53.91
2018-10-01T11:40:09.548Z,54.56
2018-10-01T11:41:12.785Z,54.57
2018-10-01T11:42:16.830Z,54.89
2018-10-01T11:43:20.711Z,55.41
2018-10-01T11:44:23.472Z,56.13
2018-10-01T11:45:28.320Z,54.23
2018-10-01T11:46:33.204Z,53.36
2018-10-01T11:47:38.710Z,51.29
2018-10-01T11:48:41.832Z,49.99
2018-10-01T11:49:45.964Z,47.36
2018-10-01T11:50:49.141Z,47.43
2018-10-01T11:51:53.560Z,45.75
2018-10-01T11:53:01.348Z,44.89
2018-10-01T11:54:06.487Z,48.83
2018-10-01T11:55:13.297Z,50.65
2018-10-01T11:56:17.353Z,49.66
2018-10-01T11:57:21.516Z,48.68
2018-10-01T11:58:29.195Z,49.25
2018-10-01T11:59:34.177Z,50.71
2018-10-01T12:00:37.509Z,52.26
2018-10-01T12:01:42.390Z,53.02
2018-10-01T12:02:45.877Z,54.90
2018-10-01T12:03:49.197Z,55.95
2018-10-01T12:04:53.060Z,55.79
2018-10-01T12:05:56.139Z,55.41
2018-10-01T12:06:59.802Z,55.68
2018-10-01T12:08:03.714Z,56.22
2018-10-01T12:09:07.429Z,56.21
2018-10-01T12:10:16.293Z,57.10
2018-10-01T12:11:20.279Z,58.04
2018-10-01T12:12:26.696Z,57.85
2018-10-01T12:13:29.458Z,57.09
2018-10-01T12:14:50.505Z,57.46
2018-10-01T12:15:57.567Z,57.07
2018-10-01T12:18:09.209Z,53.22
2018-10-01T12:19:12.732Z,54.18
2018-10-01T12:20:19.194Z,55.32
2018-10-01T12:21:23.613Z,57.74
2018-10-01T12:22:35.985Z,57.15
2018-10-01T12:23:43.363Z,59.03
2018-10-01T12:24:46.357Z,58.70
2018-10-01T12:25:50.348Z,58.86
2018-10-01T12:26:55.265Z,57.96
2018-10-01T12:28:08.035Z,57.92
2018-10-01T12:29:13.117Z,57.47
2018-10-01T12:30:16.621Z,56.00
2018-10-01T12:31:24.599Z,56.31
2018-10-01T12:32:29.841Z,56.89
2018-10-01T12:33:35.485Z,57.44
2018-10-01T12:36:00.535Z,56.67
2018-10-01T12:37:04.155Z,55.98
2018-10-01T12:38:09.261Z,55.74
2018-10-01T12:39:13.248Z,54.99
2018-10-01T12:40:16.067Z,52.59
2018-10-01T12:41:20.943Z,54.91
2018-10-01T12:42:24.339Z,54.48
2018-10-01T12:43:27.561Z,53.15
2018-10-01T12:44:30.991Z,53.42
2018-10-01T12:45:38.167Z,53.17
2018-10-01T12:46:46.694Z,53.40
2018-10-01T12:47:49.445Z,54.00
2018-10-01T12:48:53.512Z,53.47
2018-10-01T12:49:59.997Z,53.90
2018-10-01T12:51:03.393Z,56.05
2018-10-01T12:52:09.962Z,55.89
2018-10-01T12:53:15.780Z,53.95
2018-10-01T12:54:18.613Z,54.52
2018-10-01T12:55:27.227Z,53.31
2018-10-01T12:56:30.280Z,49.67
2018-10-01T12:57:34.767Z,49.04
2018-10-01T12:58:38.978Z,51.72
2018-10-01T12:59:43.865Z,53.75
2018-10-01T13:00:48.033Z,55.58
2018-10-01T13:01:52.540Z,57.95
2018-10-01T13:02:56.389Z,59.18
2018-10-01T13:03:59.198Z,59.21
2018-10-01T13:05:04.258Z,61.04
2018-10-01T13:06:08.440Z,63.35
2018-10-01T13:07:11.549Z,65.72
2018-10-01T13:08:14.288Z,69.31
2018-10-01T13:09:18.462Z,69.08
2018-10-01T13:10:26.523Z,69.71
2018-10-01T13:11:30.379Z,71.45
2018-10-01T13:12:33.334Z,71.32
2018-10-01T13:13:37.543Z,71.38
2018-10-01T13:15:50.588Z,73.63
2018-10-01T13:16:53.326Z,74.24
2018-10-01T13:18:00.399Z,73.95
2018-10-01T13:19:03.670Z,73.74
2018-10-01T13:20:06.429Z,73.40
2018-10-01T13:21:10.651Z,74.52
2018-10-01T13:22:15.563Z,75.00
2018-10-01T13:23:20.684Z,74.42
2018-10-01T13:24:26.945Z,74.17
2018-10-01T13:25:29.868Z,73.62
2018-10-01T13:26:35.919Z,72.30
2018-10-01T13:27:38.663Z,71.12
2018-10-01T13:28:42.453Z,69.40
2018-10-01T13:29:45.989Z,66.28
2018-10-01T13:30:53.061Z,65.44
2018-10-01T13:31:56.585Z,63.44
2018-10-01T13:33:00.078Z,68.23
2018-10-01T13:34:05.322Z,67.97
2018-10-01T13:35:09.514Z,68.57
2018-10-01T13:36:12.697Z,67.75
2018-10-01T13:37:16.414Z,66.59
2018-10-01T13:38:21.149Z,67.61
2018-10-01T13:39:27.617Z,68.47
2018-10-01T13:40:31.042Z,67.76
2018-10-01T13:41:34.482Z,66.90
2018-10-01T13:42:39.277Z,68.04
2018-10-01T13:43:42.557Z,68.22
2018-10-01T13:44:47.683Z,67.91
2018-10-01T13:45:50.441Z,67.81
2018-10-01T13:46:53.201Z,67.47
2018-10-01T13:47:58.300Z,68.72
2018-10-01T13:49:01.798Z,69.95
2018-10-01T13:50:06.238Z,70.24
2018-10-01T13:52:27.231Z,70.52
2018-10-01T13:53:29.993Z,70.87
2018-10-01T13:54:34.102Z,71.67
2018-10-01T13:55:39.728Z,71.63
2018-10-01T13:56:43.472Z,70.56
2018-10-01T13:57:46.830Z,69.71
2018-10-01T13:58:52.381Z,69.92
2018-10-01T13:59:55.915Z,69.77
2018-10-01T14:00:58.663Z,69.87
2018-10-01T14:02:02.436Z,70.37
2018-10-01T14:03:08.734Z,69.48
2018-10-01T14:04:11.613Z,68.50
2018-10-01T14:05:19.090Z,67.52
2018-10-01T14:06:22.817Z,66.73
2018-10-01T14:07:28.275Z,65.82
2018-10-01T14:08:37.108Z,65.96
2018-10-01T14:09:39.886Z,66.80
2018-10-01T14:10:42.669Z,66.41
2018-10-01T14:11:48.607Z,65.69